createdAt,value
2019-04-20T00:01:12.640Z,72
2019-04-20T00:06:11.168Z,72
2019-04-20T00:11:16.131Z,72
2019-04-20T00:16:10.299Z,73
2019-04-20T00:21:14.105Z,73
2019-04-20T00:26:14.660Z,73
2019-04-20T00:31:26.727Z,73
2019-04-20T00:36:11.753Z,74
2019-04-20T00:41:13.386Z,74
2019-04-20T00:46:19.613Z,74
2019-04-20T00:51:23.866Z,74
2019-04-20T00:56:10.095Z,75
2019-04-20T01:01:33.575Z,75
2019-04-20T01:06:28.872Z,76
2019-04-20T01:11:10.690Z,76
2019-04-20T01:16:21.362Z,77
2019-04-20T01:21:14.901Z,77
2019-04-20T01:26:12.971Z,77
2019-04-20T01:31:18.601Z,77
2019-04-20T01:36:33.591Z,77
2019-04-20T01:41:11.594Z,77
2019-04-20T01:46:15.652Z,78
2019-04-20T01:51:17.602Z,78
2019-04-20T01:56:24.507Z,78
2019-04-20T02:01:16.438Z,78
2019-04-20T02:06:16.131Z,78
2019-04-20T02:11:17.822Z,78
2019-04-20T02:16:18.332Z,79
2019-04-20T02:21:28.786Z,79
2019-04-20T02:26:11.140Z,78
2019-04-20T02:36:53.302Z,79
2019-04-20T02:41:44.009Z,79
2019-04-20T02:46:33.708Z,80
2019-04-20T02:51:46.667Z,80
2019-04-20T02:56:51.678Z,80
2019-04-20T03:01:32.385Z,80
2019-04-20T03:06:23.350Z,80
2019-04-20T03:11:40.463Z,80
2019-04-20T03:16:24.273Z,80
2019-04-20T03:21:34.609Z,80
2019-04-20T03:26:33.932Z,80
2019-04-20T03:32:03.596Z,80
2019-04-20T03:36:35.151Z,81
2019-04-20T03:41:19.592Z,81
2019-04-20T03:46:14.374Z,81
2019-04-20T03:51:33.483Z,81
2019-04-20T04:01:45.623Z,81
2019-04-20T04:06:18.728Z,81
2019-04-20T04:11:27.603Z,81
2019-04-20T04:16:13.103Z,82
2019-04-20T04:21:18.292Z,82
2019-04-20T04:26:27.539Z,82
2019-04-20T04:31:28.169Z,82
2019-04-20T04:36:21.174Z,83
2019-04-20T04:41:24.305Z,83
2019-04-20T04:46:12.051Z,83
2019-04-20T04:51:17.638Z,83
2019-04-20T04:56:14.933Z,83
2019-04-20T05:01:16.725Z,83
2019-04-20T05:06:29.198Z,84
2019-04-20T05:11:11.038Z,84
2019-04-20T05:16:19.263Z,84
2019-04-20T05:21:26.126Z,84
2019-04-20T05:26:26.963Z,85
2019-04-20T05:31:12.210Z,85
2019-04-20T05:36:23.345Z,85
2019-04-20T05:41:26.887Z,85
2019-04-20T05:46:32.058Z,85
2019-04-20T06:01:34.434Z,85
2019-04-20T06:06:28.918Z,83
2019-04-20T06:16:25.216Z,81
2019-04-20T06:21:32.318Z,81
2019-04-20T06:26:43.800Z,79
2019-04-20T06:31:31.082Z,79
2019-04-20T06:36:32.530Z,76
2019-04-20T06:41:46.568Z,76
2019-04-20T06:46:36.246Z,73
2019-04-20T07:01:43.349Z,70
2019-04-20T07:06:34.121Z,66
2019-04-20T07:11:28.256Z,66
2019-04-20T07:16:28.664Z,59
2019-04-20T07:21:44.953Z,59
2019-04-20T07:26:37.356Z,53
2019-04-20T07:31:30.847Z,53
2019-04-20T07:36:32.397Z,54
2019-04-20T07:41:43.804Z,54
2019-04-20T07:46:47.093Z,50
2019-04-20T07:51:19.485Z,50
2019-04-20T07:56:25.554Z,50
2019-04-20T08:01:38.559Z,50
2019-04-20T08:06:18.148Z,48
2019-04-20T08:11:21.046Z,48
2019-04-20T08:16:41.883Z,44
2019-04-20T08:21:28.733Z,44
2019-04-20T08:26:19.395Z,44
2019-04-20T08:31:26.986Z,44
2019-04-20T08:36:33.156Z,45
2019-04-20T08:41:25.067Z,45
2019-04-20T08:46:26.555Z,45
2019-04-20T08:51:31.877Z,45
2019-04-20T08:56:21.913Z,44
2019-04-20T09:01:14.442Z,44
2019-04-20T09:06:31.314Z,39
2019-04-20T09:11:30.941Z,39
2019-04-20T09:16:11.249Z,40
2019-04-20T09:21:24.234Z,40
2019-04-20T09:26:29.412Z,38
2019-04-20T09:31:20.089Z,38
2019-04-20T09:36:23.731Z,39
2019-04-20T09:41:30.428Z,39
2019-04-20T09:46:11.842Z,41
2019-04-20T09:51:33.347Z,41
2019-04-20T09:56:23.961Z,40
2019-04-20T10:01:24.151Z,40
2019-04-20T10:06:11.643Z,43
2019-04-20T10:11:11.756Z,43
2019-04-20T10:16:11.397Z,42
2019-04-20T10:21:11.799Z,42
2019-04-20T10:26:12.043Z,42
2019-04-20T10:31:10.714Z,42
2019-04-20T10:36:11.834Z,39
2019-04-20T10:41:15.406Z,39
2019-04-20T10:46:11.271Z,39
2019-04-20T10:51:10.945Z,39
2019-04-20T10:56:11.696Z,38
2019-04-20T11:01:11.538Z,38
2019-04-20T11:06:11.100Z,36
2019-04-20T11:11:16.410Z,36
2019-04-20T11:16:10.838Z,37
2019-04-20T11:21:11.494Z,37
2019-04-20T11:26:11.370Z,36
2019-04-20T11:31:12.322Z,36
2019-04-20T11:36:11.294Z,37
2019-04-20T11:41:18.130Z,37
2019-04-20T11:46:12.237Z,35
2019-04-20T11:51:11.699Z,35
2019-04-20T11:56:14.461Z,35
2019-04-20T12:01:15.328Z,35
2019-04-20T12:06:12.715Z,34
2019-04-20T12:11:23.042Z,34
2019-04-20T12:16:11.850Z,33
2019-04-20T12:21:10.667Z,33
2019-04-20T12:26:10.888Z,35
2019-04-20T12:31:16.503Z,35
2019-04-20T12:36:12.260Z,34
2019-04-20T12:41:12.500Z,34
2019-04-20T12:46:13.619Z,36
2019-04-20T12:51:11.354Z,36
2019-04-20T12:56:11.076Z,35
2019-04-20T13:01:12.133Z,35
2019-04-20T13:06:12.130Z,36
2019-04-20T13:11:11.052Z,36
2019-04-20T13:16:12.218Z,34
2019-04-20T13:21:11.195Z,34
2019-04-20T13:26:12.274Z,34
2019-04-20T13:31:11.673Z,34
2019-04-20T13:36:10.759Z,32
2019-04-20T13:41:11.664Z,32
2019-04-20T13:46:11.417Z,32
2019-04-20T13:51:10.806Z,32
2019-04-20T13:56:11.842Z,33
2019-04-20T14:01:12.612Z,33
2019-04-20T14:06:11.233Z,30
2019-04-20T14:11:11.534Z,30
2019-04-20T14:16:11.365Z,30
2019-04-20T14:21:12.099Z,30
2019-04-20T14:26:10.663Z,32
2019-04-20T14:31:12.045Z,32
2019-04-20T14:36:12.766Z,30
2019-04-20T14:41:12.490Z,30
2019-04-20T14:46:12.590Z,30
2019-04-20T14:51:11.805Z,30
2019-04-20T14:56:11.410Z,32
2019-04-20T15:01:12.352Z,32
2019-04-20T15:06:11.770Z,32
2019-04-20T15:11:12.582Z,32
2019-04-20T15:16:10.980Z,31
2019-04-20T15:21:11.458Z,31
2019-04-20T15:26:12.730Z,34
2019-04-20T15:31:12.059Z,34
2019-04-20T15:36:11.176Z,34
2019-04-20T15:41:13.309Z,34
2019-04-20T15:46:10.975Z,34
2019-04-20T15:51:12.027Z,34
2019-04-20T15:56:11.846Z,33
2019-04-20T16:01:12.169Z,33
2019-04-20T16:06:11.588Z,33
2019-04-20T16:11:13.153Z,33
2019-04-20T16:16:12.174Z,34
2019-04-20T16:21:17.852Z,34
2019-04-20T16:26:11.441Z,34
2019-04-20T16:31:13.331Z,34
2019-04-20T16:36:12.340Z,35
2019-04-20T16:41:10.991Z,35
2019-04-20T16:46:11.531Z,36
2019-04-20T16:51:13.116Z,36
2019-04-20T16:56:12.712Z,36
2019-04-20T17:01:11.673Z,36
2019-04-20T17:06:11.801Z,37
2019-04-20T17:11:11.738Z,37
2019-04-20T17:16:11.306Z,37
2019-04-20T17:21:18.676Z,37
2019-04-20T17:26:11.890Z,36
2019-04-20T17:31:11.843Z,36
2019-04-20T17:36:18.780Z,37
2019-04-20T17:41:23.692Z,37
2019-04-20T17:46:24.440Z,38
2019-04-20T17:56:12.152Z,38
2019-04-20T18:01:25.560Z,38
2019-04-20T18:06:19.872Z,38
2019-04-20T18:11:17.913Z,38
2019-04-20T18:16:28.364Z,39
2019-04-20T18:21:11.642Z,39
2019-04-20T18:26:36.241Z,40
2019-04-20T18:31:11.295Z,40
2019-04-20T18:36:13.400Z,40
2019-04-20T18:41:23.087Z,40
2019-04-20T18:46:21.886Z,42
2019-04-20T18:51:12.046Z,42
2019-04-20T18:56:12.293Z,43
2019-04-20T19:01:12.845Z,43
2019-04-20T19:06:12.516Z,44
2019-04-20T19:11:15.284Z,44
2019-04-20T19:16:21.203Z,45
2019-04-20T19:21:11.147Z,45
2019-04-20T19:26:16.124Z,47
2019-04-20T19:31:30.749Z,47
2019-04-20T19:36:19.932Z,47
2019-04-20T19:41:23.157Z,47
2019-04-20T19:46:39.604Z,48
2019-04-20T19:51:34.028Z,48
2019-04-20T19:56:31.105Z,49
2019-04-20T20:01:11.758Z,49
2019-04-20T20:06:20.533Z,49
2019-04-20T20:11:20.936Z,49
2019-04-20T20:16:20.302Z,51
2019-04-20T20:21:23.551Z,51
2019-04-20T20:26:22.302Z,51
2019-04-20T20:31:27.329Z,51
2019-04-20T20:36:17.976Z,52
2019-04-20T20:41:20.696Z,52
2019-04-20T20:46:23.986Z,53
2019-04-20T20:51:34.632Z,53
2019-04-20T20:56:21.514Z,55
2019-04-20T21:01:17.564Z,55
2019-04-20T21:06:11.930Z,56
2019-04-20T21:11:18.557Z,56
2019-04-20T21:16:17.318Z,57
2019-04-20T21:21:27.428Z,57
2019-04-20T21:26:17.909Z,58
2019-04-20T21:31:15.954Z,58
2019-04-20T21:36:14.120Z,59
2019-04-20T21:41:15.033Z,59
2019-04-20T21:46:13.683Z,60
2019-04-20T21:51:26.424Z,60
2019-04-20T21:56:12.239Z,62
2019-04-20T22:01:21.531Z,62
2019-04-20T22:06:11.477Z,62
2019-04-20T22:11:11.687Z,62
2019-04-20T22:16:13.145Z,63
2019-04-20T22:21:21.421Z,63
2019-04-20T22:26:24.320Z,64
2019-04-20T22:31:11.972Z,64
2019-04-20T22:36:13.112Z,65
2019-04-20T22:41:14.362Z,65
2019-04-20T22:46:12.858Z,65
2019-04-20T22:51:27.905Z,65
2019-04-20T23:01:29.877Z,67
2019-04-20T23:06:18.776Z,67
2019-04-20T23:11:18.076Z,67
2019-04-20T23:16:13.235Z,68
2019-04-20T23:21:15.769Z,68
2019-04-20T23:26:12.679Z,69
2019-04-20T23:31:18.442Z,69
2019-04-20T23:36:12.297Z,70
2019-04-20T23:41:11.587Z,70
2019-04-20T23:46:17.007Z,71
2019-04-20T23:51:36.899Z,71
2019-04-20T23:56:15.595Z,72
